sensor_id;sensor_type;location;lat;lon;timestamp;pressure;altitude;pressure_sealevel;temperature;humidity
75767;BME280;64378;55.596;13.014;2022-11-15T00:00:27;101500.53;;;18.19;54.22
75767;BME280;64378;55.596;13.014;2022-11-15T00:02:53;101494.22;;;18.19;54.51
75767;BME280;64378;55.596;13.014;2022-11-15T00:05:18;101491.50;;;18.19;54.53
75767;BME280;64378;55.596;13.014;2022-11-15T00:07:43;101480.56;;;18.19;54.59
75767;BME280;64378;55.596;13.014;2022-11-15T00:10:09;101484.16;;;18.19;54.61
75767;BME280;64378;55.596;13.014;2022-11-15T00:12:34;101488.53;;;18.20;54.56
75767;BME280;64378;55.596;13.014;2022-11-15T00:14:59;101478.69;;;18.19;54.60
75767;BME280;64378;55.596;13.014;2022-11-15T00:17:24;101473.22;;;18.19;54.62
75767;BME280;64378;55.596;13.014;2022-11-15T00:19:50;101477.00;;;18.18;54.31
75767;BME280;64378;55.596;13.014;2022-11-15T00:22:15;101473.22;;;18.19;54.50
75767;BME280;64378;55.596;13.014;2022-11-15T00:24:40;101468.81;;;18.18;54.44
75767;BME280;64378;55.596;13.014;2022-11-15T00:27:05;101472.38;;;18.19;54.59
75767;BME280;64378;55.596;13.014;2022-11-15T00:29:31;101471.56;;;18.18;54.61
75767;BME280;64378;55.596;13.014;2022-11-15T00:31:56;101471.56;;;18.18;54.43
75767;BME280;64378;55.596;13.014;2022-11-15T00:34:21;101463.34;;;18.18;54.31
75767;BME280;64378;55.596;13.014;2022-11-15T00:36:46;101460.63;;;18.18;54.60
75767;BME280;64378;55.596;13.014;2022-11-15T00:39:11;101463.34;;;18.18;54.71
75767;BME280;64378;55.596;13.014;2022-11-15T00:41:37;101461.44;;;18.19;54.68
75767;BME280;64378;55.596;13.014;2022-11-15T00:44:02;101460.63;;;18.18;54.88
75767;BME280;64378;55.596;13.014;2022-11-15T00:46:27;101471.56;;;18.18;54.86
75767;BME280;64378;55.596;13.014;2022-11-15T00:48:52;101461.44;;;18.19;54.73
75767;BME280;64378;55.596;13.014;2022-11-15T00:51:18;101467.97;;;18.18;54.92
75767;BME280;64378;55.596;13.014;2022-11-15T00:53:43;101464.19;;;18.19;55.06
75767;BME280;64378;55.596;13.014;2022-11-15T00:56:08;101461.44;;;18.19;54.68
75767;BME280;64378;55.596;13.014;2022-11-15T00:58:33;101453.25;;;18.19;54.79
75767;BME280;64378;55.596;13.014;2022-11-15T01:01:05;101466.09;;;18.18;54.69
75767;BME280;64378;55.596;13.014;2022-11-15T01:03:32;101462.50;;;18.18;55.07
75767;BME280;64378;55.596;13.014;2022-11-15T01:05:58;101457.03;;;18.18;54.66
75767;BME280;64378;55.596;13.014;2022-11-15T01:08:24;101454.31;;;18.18;54.66
75767;BME280;64378;55.596;13.014;2022-11-15T01:10:50;101448.84;;;18.18;54.78
75767;BME280;64378;55.596;13.014;2022-11-15T01:13:15;101448.84;;;18.18;54.59
75767;BME280;64378;55.596;13.014;2022-11-15T01:15:40;101450.75;;;18.17;54.78
75767;BME280;64378;55.596;13.014;2022-11-15T01:18:06;101446.13;;;18.18;54.28
75767;BME280;64378;55.596;13.014;2022-11-15T01:20:31;101444.44;;;18.17;54.73
75767;BME280;64378;55.596;13.014;2022-11-15T01:22:56;101441.72;;;18.17;54.43
75767;BME280;64378;55.596;13.014;2022-11-15T01:25:22;101436.25;;;18.17;54.45
75767;BME280;64378;55.596;13.014;2022-11-15T01:27:47;101431.66;;;18.17;54.44
75767;BME280;64378;55.596;13.014;2022-11-15T01:30:12;101439.00;;;18.17;54.49
75767;BME280;64378;55.596;13.014;2022-11-15T01:32:37;101432.72;;;18.16;54.62
75767;BME280;64378;55.596;13.014;2022-11-15T01:35:03;101426.41;;;18.16;54.41
75767;BME280;64378;55.596;13.014;2022-11-15T01:37:28;101425.59;;;18.15;54.41
75767;BME280;64378;55.596;13.014;2022-11-15T01:39:53;101423.66;;;18.16;54.35
75767;BME280;64378;55.596;13.014;2022-11-15T01:42:18;101418.47;;;18.14;54.37
75767;BME280;64378;55.596;13.014;2022-11-15T01:44:46;101417.38;;;18.15;54.05
75767;BME280;64378;55.596;13.014;2022-11-15T01:47:54;101428.31;;;18.15;54.16
75767;BME280;64378;55.596;13.014;2022-11-15T01:50:02;101415.72;;;18.14;54.53
75767;BME280;64378;55.596;13.014;2022-11-15T01:52:30;101404.19;;;18.12;54.58
75767;BME280;64378;55.596;13.014;2022-11-15T01:57:24;101390.53;;;18.12;54.58
75767;BME280;64378;55.596;13.014;2022-11-15T01:59:49;101394.94;;;18.13;54.53
75767;BME280;64378;55.596;13.014;2022-11-15T02:02:14;101401.47;;;18.12;54.26
75767;BME280;64378;55.596;13.014;2022-11-15T02:04:41;101396.00;;;18.12;54.00
75767;BME280;64378;55.596;13.014;2022-11-15T02:07:06;101390.28;;;18.14;54.62
75767;BME280;64378;55.596;13.014;2022-11-15T02:09:35;101402.28;;;18.13;54.70
75767;BME280;64378;55.596;13.014;2022-11-15T02:12:00;101394.94;;;18.13;54.59
75767;BME280;64378;55.596;13.014;2022-11-15T02:14:26;101393.28;;;18.12;54.68
75767;BME280;64378;55.596;13.014;2022-11-15T02:17:02;101389.47;;;18.13;54.47
75767;BME280;64378;55.596;13.014;2022-11-15T02:32:08;101379.84;;;18.11;54.81
75767;BME280;64378;55.596;13.014;2022-11-15T02:37:16;101377.97;;;18.11;54.84
75767;BME280;64378;55.596;13.014;2022-11-15T02:39:51;101380.69;;;18.11;54.74
75767;BME280;64378;55.596;13.014;2022-11-15T02:42:19;101373.31;;;18.12;54.80
75767;BME280;64378;55.596;13.014;2022-11-15T02:45:05;101358.84;;;18.11;54.83
75767;BME280;64378;55.596;13.014;2022-11-15T02:47:33;101362.63;;;18.10;54.74
75767;BME280;64378;55.596;13.014;2022-11-15T02:50:01;101365.38;;;18.10;54.74
75767;BME280;64378;55.596;13.014;2022-11-15T02:52:27;101367.03;;;18.11;54.64
75767;BME280;64378;55.596;13.014;2022-11-15T02:54:56;101368.09;;;18.10;54.70
75767;BME280;64378;55.596;13.014;2022-11-15T03:02:39;101343.53;;;18.10;54.36
75767;BME280;64378;55.596;13.014;2022-11-15T03:05:14;101337.22;;;18.10;54.27
75767;BME280;64378;55.596;13.014;2022-11-15T03:12:43;101321.91;;;18.09;54.49
75767;BME280;64378;55.596;13.014;2022-11-15T03:18:55;101319.19;;;18.09;54.42
75767;BME280;64378;55.596;13.014;2022-11-15T03:20:53;101324.66;;;18.09;54.44
75767;BME280;64378;55.596;13.014;2022-11-15T03:23:19;101316.47;;;18.09;54.19
75767;BME280;64378;55.596;13.014;2022-11-15T03:25:46;101313.72;;;18.09;54.82
75767;BME280;64378;55.596;13.014;2022-11-15T03:28:17;101298.16;;;18.09;54.61
75767;BME280;64378;55.596;13.014;2022-11-15T03:30:44;101309.09;;;18.09;54.36
75767;BME280;64378;55.596;13.014;2022-11-15T03:33:11;101298.41;;;18.08;54.55
75767;BME280;64378;55.596;13.014;2022-11-15T03:35:40;101294.84;;;18.07;54.68
75767;BME280;64378;55.596;13.014;2022-11-15T03:38:10;101295.69;;;18.08;54.58
75767;BME280;64378;55.596;13.014;2022-11-15T03:40:40;101294.84;;;18.07;54.65
75767;BME280;64378;55.596;13.014;2022-11-15T03:43:10;101285.81;;;18.07;54.52
75767;BME280;64378;55.596;13.014;2022-11-15T03:45:42;101284.75;;;18.08;54.63
75767;BME280;64378;55.596;13.014;2022-11-15T03:48:17;101266.72;;;18.07;54.69
75767;BME280;64378;55.596;13.014;2022-11-15T03:50:43;101281.19;;;18.07;54.65
75767;BME280;64378;55.596;13.014;2022-11-15T03:53:10;101275.72;;;18.07;54.67
75767;BME280;64378;55.596;13.014;2022-11-15T03:55:35;101284.97;;;18.06;54.41
75767;BME280;64378;55.596;13.014;2022-11-15T03:58:01;101286.91;;;18.06;54.54
75767;BME280;64378;55.596;13.014;2022-11-15T04:00:27;101294.00;;;18.07;54.55
75767;BME280;64378;55.596;13.014;2022-11-15T04:02:52;101294.00;;;18.07;54.81
75767;BME280;64378;55.596;13.014;2022-11-15T04:05:18;101293.16;;;18.06;54.55
75767;BME280;64378;55.596;13.014;2022-11-15T04:07:43;101297.81;;;18.06;54.77
75767;BME280;64378;55.596;13.014;2022-11-15T04:10:09;101299.69;;;18.05;54.55
75767;BME280;64378;55.596;13.014;2022-11-15T04:12:36;101301.38;;;18.06;54.40
75767;BME280;64378;55.596;13.014;2022-11-15T04:15:21;101284.97;;;18.06;54.14
75767;BME280;64378;55.596;13.014;2022-11-15T04:17:47;101282.50;;;18.05;54.74
75767;BME280;64378;55.596;13.014;2022-11-15T04:22:57;101290.69;;;18.05;54.49
75767;BME280;64378;55.596;13.014;2022-11-15T04:25:41;101279.75;;;18.05;54.77
75767;BME280;64378;55.596;13.014;2022-11-15T04:28:07;101283.31;;;18.05;54.83
75767;BME280;64378;55.596;13.014;2022-11-15T04:30:33;101270.72;;;18.04;54.74
75767;BME280;64378;55.596;13.014;2022-11-15T04:32:58;101268.00;;;18.04;54.81
75767;BME280;64378;55.596;13.014;2022-11-15T04:35:23;101262.53;;;18.04;54.63
75767;BME280;64378;55.596;13.014;2022-11-15T04:37:49;101268.00;;;18.04;54.48
75767;BME280;64378;55.596;13.014;2022-11-15T04:40:14;101273.47;;;18.04;54.76
75767;BME280;64378;55.596;13.014;2022-11-15T04:42:40;101261.72;;;18.04;54.74
75767;BME280;64378;55.596;13.014;2022-11-15T04:45:06;101268.25;;;18.03;54.68
75767;BME280;64378;55.596;13.014;2022-11-15T04:47:32;101263.59;;;18.03;54.60
75767;BME280;64378;55.596;13.014;2022-11-15T04:49:57;101266.34;;;18.03;54.30
75767;BME280;64378;55.596;13.014;2022-11-15T04:52:22;101270.97;;;18.03;54.29
75767;BME280;64378;55.596;13.014;2022-11-15T04:54:47;101264.66;;;18.02;54.70
75767;BME280;64378;55.596;13.014;2022-11-15T04:57:12;101270.97;;;18.03;54.50
75767;BME280;64378;55.596;13.014;2022-11-15T04:59:38;101274.78;;;18.02;54.48
75767;BME280;64378;55.596;13.014;2022-11-15T05:02:04;101276.66;;;18.01;54.34
75767;BME280;64378;55.596;13.014;2022-11-15T05:04:29;101278.56;;;18.01;54.32
75767;BME280;64378;55.596;13.014;2022-11-15T05:06:54;101285.91;;;18.00;54.64
75767;BME280;64378;55.596;13.014;2022-11-15T05:09:20;101286.78;;;18.01;54.28
75767;BME280;64378;55.596;13.014;2022-11-15T05:11:45;101279.63;;;18.00;54.77
75767;BME280;64378;55.596;13.014;2022-11-15T05:14:11;101284.03;;;18.01;54.65
75767;BME280;64378;55.596;13.014;2022-11-15T05:16:37;101288.66;;;18.00;54.69
75767;BME280;64378;55.596;13.014;2022-11-15T05:19:02;101287.84;;;18.00;54.61
75767;BME280;64378;55.596;13.014;2022-11-15T05:21:28;101291.38;;;18.00;54.97
75767;BME280;64378;55.596;13.014;2022-11-15T05:23:53;101287.84;;;18.00;54.58
75767;BME280;64378;55.596;13.014;2022-11-15T05:26:19;101296.03;;;18.00;54.70
75767;BME280;64378;55.596;13.014;2022-11-15T05:28:44;101294.97;;;18.01;54.70
75767;BME280;64378;55.596;13.014;2022-11-15T05:31:11;101297.91;;;17.99;54.69
75767;BME280;64378;55.596;13.014;2022-11-15T05:33:37;101296.84;;;18.00;54.57
75767;BME280;64378;55.596;13.014;2022-11-15T05:38:55;101293.28;;;18.00;54.57
75767;BME280;64378;55.596;13.014;2022-11-15T05:41:21;101292.44;;;17.99;54.84
75767;BME280;64378;55.596;13.014;2022-11-15T05:43:47;101293.28;;;18.00;54.68
75767;BME280;64378;55.596;13.014;2022-11-15T05:46:13;101285.91;;;18.00;54.93
75767;BME280;64378;55.596;13.014;2022-11-15T05:48:40;101283.44;;;17.99;54.90
75767;BME280;64378;55.596;13.014;2022-11-15T05:51:06;101286.97;;;17.99;54.75
75767;BME280;64378;55.596;13.014;2022-11-15T05:53:32;101284.25;;;17.99;55.12
75767;BME280;64378;55.596;13.014;2022-11-15T05:55:57;101277.72;;;18.00;54.98
75767;BME280;64378;55.596;13.014;2022-11-15T05:58:23;101278.78;;;17.99;54.87
75767;BME280;64378;55.596;13.014;2022-11-15T06:00:48;101280.72;;;17.99;55.01
75767;BME280;64378;55.596;13.014;2022-11-15T06:03:13;101280.72;;;17.99;54.91
75767;BME280;64378;55.596;13.014;2022-11-15T06:05:39;101281.53;;;17.99;54.85
75767;BME280;64378;55.596;13.014;2022-11-15T06:08:04;101277.13;;;17.98;55.03
75767;BME280;64378;55.596;13.014;2022-11-15T06:10:29;101283.44;;;17.99;54.94
75767;BME280;64378;55.596;13.014;2022-11-15T06:15:23;101288.91;;;17.99;54.67
75767;BME280;64378;55.596;13.014;2022-11-15T06:17:48;101293.50;;;17.98;54.88
75767;BME280;64378;55.596;13.014;2022-11-15T06:20:13;101288.06;;;17.98;54.84
75767;BME280;64378;55.596;13.014;2022-11-15T06:22:38;101293.50;;;17.98;54.83
75767;BME280;64378;55.596;13.014;2022-11-15T06:25:04;101300.88;;;17.98;55.04
75767;BME280;64378;55.596;13.014;2022-11-15T06:27:29;101301.69;;;17.98;54.86
75767;BME280;64378;55.596;13.014;2022-11-15T06:29:54;101298.97;;;17.98;55.03
75767;BME280;64378;55.596;13.014;2022-11-15T06:32:19;101304.44;;;17.98;55.08
75767;BME280;64378;55.596;13.014;2022-11-15T06:34:45;101296.25;;;17.98;55.10
75767;BME280;64378;55.596;13.014;2022-11-15T06:37:10;101304.69;;;17.97;54.97
75767;BME280;64378;55.596;13.014;2022-11-15T06:39:35;101309.09;;;17.98;54.74
75767;BME280;64378;55.596;13.014;2022-11-15T06:42:00;101304.09;;;17.95;54.69
75767;BME280;64378;55.596;13.014;2022-11-15T06:44:25;101305.50;;;17.97;54.54
75767;BME280;64378;55.596;13.014;2022-11-15T06:46:51;101304.69;;;17.97;54.58
75767;BME280;64378;55.596;13.014;2022-11-15T06:49:16;101299.22;;;17.97;54.72
75767;BME280;64378;55.596;13.014;2022-11-15T06:51:41;101295.69;;;17.96;54.44
75767;BME280;64378;55.596;13.014;2022-11-15T06:54:07;101302.22;;;17.95;54.69
75767;BME280;64378;55.596;13.014;2022-11-15T06:56:33;101290.44;;;17.95;54.68
75767;BME280;64378;55.596;13.014;2022-11-15T06:58:58;101297.81;;;17.94;54.34
75767;BME280;64378;55.596;13.014;2022-11-15T07:01:23;101297.81;;;17.94;54.47
75767;BME280;64378;55.596;13.014;2022-11-15T07:03:48;101302.69;;;17.92;54.39
75767;BME280;64378;55.596;13.014;2022-11-15T07:06:14;101295.31;;;17.93;54.44
75767;BME280;64378;55.596;13.014;2022-11-15T07:08:39;101303.50;;;17.93;54.57
75767;BME280;64378;55.596;13.014;2022-11-15T07:11:07;101296.16;;;17.93;54.53
75767;BME280;64378;55.596;13.014;2022-11-15T07:13:33;101309.81;;;17.93;54.46
75767;BME280;64378;55.596;13.014;2022-11-15T07:16:09;101314.41;;;17.93;54.51
75767;BME280;64378;55.596;13.014;2022-11-15T07:18:35;101318.00;;;17.93;54.46
75767;BME280;64378;55.596;13.014;2022-11-15T07:21:04;101311.69;;;17.93;54.59
75767;BME280;64378;55.596;13.014;2022-11-15T07:23:29;101320.94;;;17.92;54.48
75767;BME280;64378;55.596;13.014;2022-11-15T07:25:56;101334.59;;;17.92;54.08
75767;BME280;64378;55.596;13.014;2022-11-15T07:28:21;101335.44;;;17.92;54.31
75767;BME280;64378;55.596;13.014;2022-11-15T07:30:46;101339.22;;;17.91;54.25
75767;BME280;64378;55.596;13.014;2022-11-15T07:33:11;101335.66;;;17.91;54.23
75767;BME280;64378;55.596;13.014;2022-11-15T07:35:36;101343.84;;;17.91;54.46
75767;BME280;64378;55.596;13.014;2022-11-15T07:38:02;101338.38;;;17.91;54.27
75767;BME280;64378;55.596;13.014;2022-11-15T07:40:29;101342.19;;;17.90;54.08
75767;BME280;64378;55.596;13.014;2022-11-15T07:43:01;101339.44;;;17.90;53.91
75767;BME280;64378;55.596;13.014;2022-11-15T07:45:27;101335.91;;;17.89;54.24
75767;BME280;64378;55.596;13.014;2022-11-15T07:47:52;101337.78;;;17.89;54.34
75767;BME280;64378;55.596;13.014;2022-11-15T07:50:18;101350.38;;;17.90;54.40
75767;BME280;64378;55.596;13.014;2022-11-15T07:52:43;101352.28;;;17.89;54.20
75767;BME280;64378;55.596;13.014;2022-11-15T07:55:09;101348.72;;;17.89;54.32
75767;BME280;64378;55.596;13.014;2022-11-15T07:57:34;101350.63;;;17.88;53.99
75767;BME280;64378;55.596;13.014;2022-11-15T08:00:00;101352.28;;;17.89;54.14
75767;BME280;64378;55.596;13.014;2022-11-15T08:02:25;101351.44;;;17.89;53.53
75767;BME280;64378;55.596;13.014;2022-11-15T08:04:50;101348.72;;;17.89;54.02
75767;BME280;64378;55.596;13.014;2022-11-15T08:07:16;101348.72;;;17.89;53.70
75767;BME280;64378;55.596;13.014;2022-11-15T08:09:41;101351.44;;;17.89;53.87
75767;BME280;64378;55.596;13.014;2022-11-15T08:12:06;101352.28;;;17.89;54.14
75767;BME280;64378;55.596;13.014;2022-11-15T08:14:31;101350.63;;;17.88;54.35
75767;BME280;64378;55.596;13.014;2022-11-15T08:16:57;101348.72;;;17.89;55.05
75767;BME280;64378;55.596;13.014;2022-11-15T08:19:22;101348.50;;;17.90;55.01
75767;BME280;64378;55.596;13.014;2022-11-15T08:21:47;101344.69;;;17.91;55.56
75767;BME280;64378;55.596;13.014;2022-11-15T08:24:12;101356.22;;;17.93;56.15
75767;BME280;64378;55.596;13.014;2022-11-15T08:26:38;101355.16;;;17.94;55.95
75767;BME280;64378;55.596;13.014;2022-11-15T08:29:03;101360.34;;;17.96;56.33
75767;BME280;64378;55.596;13.014;2022-11-15T08:31:28;101362.03;;;17.97;56.24
75767;BME280;64378;55.596;13.014;2022-11-15T08:33:53;101357.97;;;17.99;56.27
75767;BME280;64378;55.596;13.014;2022-11-15T08:36:19;101354.19;;;18.00;56.50
75767;BME280;64378;55.596;13.014;2022-11-15T08:38:44;101355.84;;;18.01;56.16
75767;BME280;64378;55.596;13.014;2022-11-15T08:41:11;101343.03;;;18.02;56.76
75767;BME280;64378;55.596;13.014;2022-11-15T08:43:37;101350.97;;;18.03;56.63
75767;BME280;64378;55.596;13.014;2022-11-15T08:46:02;101349.09;;;18.04;56.60
75767;BME280;64378;55.596;13.014;2022-11-15T08:48:28;101361.69;;;18.05;56.71
75767;BME280;64378;55.596;13.014;2022-11-15T08:50:54;101362.50;;;18.05;56.61
75767;BME280;64378;55.596;13.014;2022-11-15T08:53:20;101369.63;;;18.06;56.72
75767;BME280;64378;55.596;13.014;2022-11-15T08:55:45;101358.72;;;18.06;56.80
75767;BME280;64378;55.596;13.014;2022-11-15T08:58:10;101360.38;;;18.07;56.72
75767;BME280;64378;55.596;13.014;2022-11-15T09:00:36;101367.50;;;18.08;56.67
75767;BME280;64378;55.596;13.014;2022-11-15T09:03:03;101357.44;;;18.09;56.15
75767;BME280;64378;55.596;13.014;2022-11-15T09:05:29;101362.63;;;18.10;56.50
75767;BME280;64378;55.596;13.014;2022-11-15T09:07:54;101356.31;;;18.10;56.24
75767;BME280;64378;55.596;13.014;2022-11-15T09:10:20;101363.44;;;18.11;56.56
75767;BME280;64378;55.596;13.014;2022-11-15T09:12:45;101364.31;;;18.11;56.52
75767;BME280;64378;55.596;13.014;2022-11-15T09:15:13;101367.03;;;18.11;56.36
75767;BME280;64378;55.596;13.014;2022-11-15T09:17:39;101359.66;;;18.12;56.43
75767;BME280;64378;55.596;13.014;2022-11-15T09:20:04;101360.50;;;18.12;56.34
75767;BME280;64378;55.596;13.014;2022-11-15T09:22:29;101362.97;;;18.14;56.29
75767;BME280;64378;55.596;13.014;2022-11-15T09:24:55;101369.28;;;18.14;56.44
75767;BME280;64378;55.596;13.014;2022-11-15T09:27:20;101376.63;;;18.14;56.24
75767;BME280;64378;55.596;13.014;2022-11-15T09:29:45;101372.03;;;18.14;56.35
75767;BME280;64378;55.596;13.014;2022-11-15T09:32:10;101375.56;;;18.15;56.15
75767;BME280;64378;55.596;13.014;2022-11-15T09:34:35;101376.41;;;18.15;56.03
75767;BME280;64378;55.596;13.014;2022-11-15T09:37:01;101379.16;;;18.15;55.99
75767;BME280;64378;55.596;13.014;2022-11-15T09:39:26;101370.97;;;18.15;55.88
75767;BME280;64378;55.596;13.014;2022-11-15T09:41:58;101373.44;;;18.17;55.93
75767;BME280;64378;55.596;13.014;2022-11-15T09:44:39;101371.56;;;18.17;56.08
75767;BME280;64378;55.596;13.014;2022-11-15T09:49:53;101375.09;;;18.18;56.19
75767;BME280;64378;55.596;13.014;2022-11-15T09:52:19;101380.56;;;18.18;55.97
75767;BME280;64378;55.596;13.014;2022-11-15T09:54:47;101384.97;;;18.19;55.95
75767;BME280;64378;55.596;13.014;2022-11-15T09:57:13;101377.03;;;18.17;56.03
75767;BME280;64378;55.596;13.014;2022-11-15T10:04:56;101380.34;;;18.19;55.76
75767;BME280;64378;55.596;13.014;2022-11-15T10:07:39;101378.69;;;18.18;55.77
75767;BME280;64378;55.596;13.014;2022-11-15T10:12:33;101372.16;;;18.19;55.61
75767;BME280;64378;55.596;13.014;2022-11-15T10:15:03;101375.69;;;18.20;55.59
75767;BME280;64378;55.596;13.014;2022-11-15T10:20:05;101374.88;;;18.19;55.74
75767;BME280;64378;55.596;13.014;2022-11-15T10:22:35;101368.56;;;18.19;55.87
75767;BME280;64378;55.596;13.014;2022-11-15T10:27:28;101371.31;;;18.19;55.40
75767;BME280;64378;55.596;13.014;2022-11-15T10:29:54;101375.69;;;18.20;55.53
75767;BME280;64378;55.596;13.014;2022-11-15T10:32:20;101380.34;;;18.19;55.80
75767;BME280;64378;55.596;13.014;2022-11-15T10:34:45;101386.63;;;18.20;55.67
75767;BME280;64378;55.596;13.014;2022-11-15T10:37:11;101383.09;;;18.19;55.93
75767;BME280;64378;55.596;13.014;2022-11-15T10:39:36;101379.28;;;18.20;55.67
75767;BME280;64378;55.596;13.014;2022-11-15T10:44:45;101382.00;;;18.20;55.50
75767;BME280;64378;55.596;13.014;2022-11-15T10:47:24;101391.28;;;18.19;55.85
75767;BME280;64378;55.596;13.014;2022-11-15T10:49:57;101380.34;;;18.19;55.29
75767;BME280;64378;55.596;13.014;2022-11-15T10:52:23;101377.63;;;18.19;55.54
75767;BME280;64378;55.596;13.014;2022-11-15T10:55:12;101383.28;;;18.18;55.38
75767;BME280;64378;55.596;13.014;2022-11-15T10:57:49;101382.22;;;18.19;55.10
75767;BME280;64378;55.596;13.014;2022-11-15T11:02:43;101378.69;;;18.18;55.57
75767;BME280;64378;55.596;13.014;2022-11-15T11:07:58;101378.69;;;18.18;55.56
75767;BME280;64378;55.596;13.014;2022-11-15T11:10:24;101385.81;;;18.19;55.11
75767;BME280;64378;55.596;13.014;2022-11-15T11:12:49;101384.97;;;18.19;55.28
75767;BME280;64378;55.596;13.014;2022-11-15T11:15:15;101386.63;;;18.20;55.02
75767;BME280;64378;55.596;13.014;2022-11-15T11:25:28;101383.09;;;18.19;55.25
75767;BME280;64378;55.596;13.014;2022-11-15T11:27:58;101388.28;;;18.21;55.26
75767;BME280;64378;55.596;13.014;2022-11-15T11:30:29;101383.09;;;18.19;54.95
75767;BME280;64378;55.596;13.014;2022-11-15T11:50:51;101372.16;;;18.19;54.79
75767;BME280;64378;55.596;13.014;2022-11-15T11:53:23;101365.84;;;18.19;54.58
75767;BME280;64378;55.596;13.014;2022-11-15T11:55:52;101376.56;;;18.20;54.87
75767;BME280;64378;55.596;13.014;2022-11-15T11:58:19;101378.44;;;18.20;54.58
75767;BME280;64378;55.596;13.014;2022-11-15T12:00:53;101373.81;;;18.20;54.69
75767;BME280;64378;55.596;13.014;2022-11-15T12:03:23;101369.41;;;18.19;54.62
75767;BME280;64378;55.596;13.014;2022-11-15T12:11:22;101355.75;;;18.19;54.79
75767;BME280;64378;55.596;13.014;2022-11-15T12:13:53;101360.38;;;18.19;54.13
75767;BME280;64378;55.596;13.014;2022-11-15T12:16:27;101352.19;;;18.19;54.24
75767;BME280;64378;55.596;13.014;2022-11-15T12:18:54;101355.75;;;18.19;54.68
75767;BME280;64378;55.596;13.014;2022-11-15T12:22:06;101349.22;;;18.20;54.24
75767;BME280;64378;55.596;13.014;2022-11-15T12:24:11;101344.84;;;18.19;54.35
75767;BME280;64378;55.596;13.014;2022-11-15T12:26:49;101346.72;;;18.19;54.79
75767;BME280;64378;55.596;13.014;2022-11-15T12:31:51;101337.72;;;18.18;54.42
75767;BME280;64378;55.596;13.014;2022-11-15T12:36:47;101330.13;;;18.09;54.03
75767;BME280;64378;55.596;13.014;2022-11-15T12:39:13;101342.91;;;18.20;54.22
75767;BME280;64378;55.596;13.014;2022-11-15T12:41:39;101353.03;;;18.19;54.54
75767;BME280;64378;55.596;13.014;2022-11-15T12:44:10;101341.25;;;18.19;54.51
75767;BME280;64378;55.596;13.014;2022-11-15T12:52:17;101353.03;;;18.19;54.48
75767;BME280;64378;55.596;13.014;2022-11-15T13:02:17;101350.31;;;18.19;54.02
75767;BME280;64378;55.596;13.014;2022-11-15T13:04:43;101358.50;;;18.19;54.49
75767;BME280;64378;55.596;13.014;2022-11-15T13:07:08;101358.50;;;18.19;54.12
75767;BME280;64378;55.596;13.014;2022-11-15T13:09:54;101350.06;;;18.21;54.24
75767;BME280;64378;55.596;13.014;2022-11-15T13:14:51;101352.78;;;18.21;54.11
75767;BME280;64378;55.596;13.014;2022-11-15T13:17:25;101357.44;;;18.20;54.40
75767;BME280;64378;55.596;13.014;2022-11-15T13:19:57;101351.13;;;18.20;54.13
75767;BME280;64378;55.596;13.014;2022-11-15T13:22:24;101353.63;;;18.21;53.58
75767;BME280;64378;55.596;13.014;2022-11-15T13:27:53;101357.44;;;18.20;54.41
75767;BME280;64378;55.596;13.014;2022-11-15T13:30:25;101344.84;;;18.19;54.30
75767;BME280;64378;55.596;13.014;2022-11-15T13:32:51;101348.38;;;18.20;54.33
75767;BME280;64378;55.596;13.014;2022-11-15T13:35:26;101352.78;;;18.21;54.35
75767;BME280;64378;55.596;13.014;2022-11-15T13:37:52;101345.66;;;18.20;54.38
75767;BME280;64378;55.596;13.014;2022-11-15T13:40:23;101351.13;;;18.20;54.16
75767;BME280;64378;55.596;13.014;2022-11-15T13:42:49;101345.66;;;18.20;54.26
75767;BME280;64378;55.596;13.014;2022-11-15T13:45:16;101353.03;;;18.19;54.07
75767;BME280;64378;55.596;13.014;2022-11-15T13:47:42;101342.09;;;18.19;54.32
75767;BME280;64378;55.596;13.014;2022-11-15T13:50:10;101343.19;;;18.18;54.18
75767;BME280;64378;55.596;13.014;2022-11-15T13:52:36;101345.91;;;18.18;53.63
75767;BME280;64378;55.596;13.014;2022-11-15T13:57:42;101343.41;;;18.17;54.04
75767;BME280;64378;55.596;13.014;2022-11-15T14:05:39;101341.50;;;18.17;54.03
75767;BME280;64378;55.596;13.014;2022-11-15T14:10:45;101337.94;;;18.17;53.75
75767;BME280;64378;55.596;13.014;2022-11-15T14:13:28;101337.94;;;18.17;53.91
75767;BME280;64378;55.596;13.014;2022-11-15T14:15:53;101339.84;;;18.16;53.72
75767;BME280;64378;55.596;13.014;2022-11-15T14:21:08;101338.78;;;18.17;53.85
75767;BME280;64378;55.596;13.014;2022-11-15T14:23:33;101333.31;;;18.17;53.74
75767;BME280;64378;55.596;13.014;2022-11-15T14:25:59;101334.13;;;18.18;53.64
75767;BME280;64378;55.596;13.014;2022-11-15T14:30:50;101318.00;;;18.16;53.47
75767;BME280;64378;55.596;13.014;2022-11-15T14:36:11;101322.63;;;18.16;53.46
75767;BME280;64378;55.596;13.014;2022-11-15T14:38:36;101310.88;;;18.15;53.24
75767;BME280;64378;55.596;13.014;2022-11-15T14:41:02;101317.16;;;18.16;53.65
75767;BME280;64378;55.596;13.014;2022-11-15T14:43:27;101303.75;;;18.14;53.42
75767;BME280;64378;55.596;13.014;2022-11-15T14:45:52;101301.81;;;18.15;53.57
75767;BME280;64378;55.596;13.014;2022-11-15T14:48:18;101306.47;;;18.14;53.89
75767;BME280;64378;55.596;13.014;2022-11-15T14:50:43;101305.41;;;18.15;53.37
75767;BME280;64378;55.596;13.014;2022-11-15T14:53:11;101306.47;;;18.14;53.93
75767;BME280;64378;55.596;13.014;2022-11-15T14:55:36;101308.34;;;18.14;53.75